createdAt,value
2022-12-12T00:00:45.480Z,-2.82
2022-12-12T00:04:04.949Z,-2.78
2022-12-12T00:07:22.033Z,-2.68
2022-12-12T00:10:40.111Z,-2.70
2022-12-12T00:13:57.996Z,-2.70
2022-12-12T00:17:16.262Z,-2.65
2022-12-12T00:20:35.416Z,-2.67
2022-12-12T00:23:52.060Z,-2.68
2022-12-12T00:27:08.698Z,-2.66
2022-12-12T00:30:25.567Z,-2.70
2022-12-12T00:33:41.993Z,-2.73
2022-12-12T00:36:58.508Z,-2.69
2022-12-12T00:40:18.931Z,-2.80
2022-12-12T00:43:36.219Z,-2.70
2022-12-12T00:46:54.295Z,-2.97
2022-12-12T00:50:11.849Z,-3.13
2022-12-12T00:53:28.221Z,-3.09
2022-12-12T00:56:44.849Z,-3.19
2022-12-12T01:00:01.010Z,-3.16
2022-12-12T01:03:17.459Z,-3.21
2022-12-12T01:06:34.780Z,-3.16
2022-12-12T01:09:53.758Z,-2.96
2022-12-12T01:13:10.689Z,-2.91
2022-12-12T01:16:27.383Z,-2.81
2022-12-12T01:19:43.691Z,-2.80
2022-12-12T01:23:00.744Z,-2.81
2022-12-12T01:26:20.859Z,-2.86
2022-12-12T01:29:38.162Z,-2.84
2022-12-12T01:32:55.893Z,-2.86
2022-12-12T01:36:14.724Z,-2.86
2022-12-12T01:39:31.592Z,-2.86
2022-12-12T01:42:47.807Z,-3.02
2022-12-12T01:46:44.982Z,-2.96
2022-12-12T01:50:06.148Z,-2.99
2022-12-12T01:53:24.315Z,-2.89
2022-12-12T01:56:42.858Z,-3.00
2022-12-12T01:59:59.553Z,-3.10
2022-12-12T02:03:16.206Z,-3.05
2022-12-12T02:06:35.885Z,-3.13
2022-12-12T02:09:54.001Z,-3.23
2022-12-12T02:13:14.032Z,-3.17
2022-12-12T02:16:40.966Z,-3.28
2022-12-12T02:20:33.545Z,-3.36
2022-12-12T02:24:30.542Z,-3.35
2022-12-12T02:28:24.265Z,-3.44
2022-12-12T02:31:45.671Z,-3.36
2022-12-12T02:35:10.563Z,-3.46
2022-12-12T02:38:33.992Z,-3.43
2022-12-12T02:41:56.153Z,-3.48
2022-12-12T02:45:19.411Z,-3.49
2022-12-12T02:48:41.354Z,-3.49
2022-12-12T02:52:00.209Z,-3.58
2022-12-12T02:55:19.910Z,-3.45
2022-12-12T02:58:33.912Z,-3.38
2022-12-12T03:01:57.504Z,-3.44
2022-12-12T03:05:40.264Z,-3.42
2022-12-12T03:09:08.171Z,-3.28
2022-12-12T03:12:29.631Z,-3.25
2022-12-12T03:15:55.190Z,-3.25
2022-12-12T03:19:16.847Z,-3.36
2022-12-12T03:22:38.399Z,-3.20
2022-12-12T03:26:00.098Z,-3.06
2022-12-12T03:29:21.071Z,-3.18
2022-12-12T03:32:41.909Z,-3.15
2022-12-12T03:36:02.346Z,-3.07
2022-12-12T03:39:23.846Z,-3.16
2022-12-12T03:42:44.869Z,-3.16
2022-12-12T03:46:07.465Z,-3.12
2022-12-12T03:49:29.406Z,-3.06
2022-12-12T03:52:49.932Z,-3.00
2022-12-12T03:56:12.868Z,-3.11
2022-12-12T03:59:35.159Z,-2.99
2022-12-12T04:02:56.953Z,-2.97
2022-12-12T04:06:32.076Z,-2.93
2022-12-12T04:10:03.270Z,-2.96
2022-12-12T04:13:30.348Z,-2.93
2022-12-12T04:16:47.839Z,-2.96
2022-12-12T04:20:23.701Z,-2.98
2022-12-12T04:23:47.807Z,-2.97
2022-12-12T04:27:09.552Z,-3.09
2022-12-12T04:30:26.346Z,-3.13
2022-12-12T04:33:48.551Z,-3.02
2022-12-12T04:37:05.424Z,-2.99
2022-12-12T04:40:27.661Z,-2.97
2022-12-12T04:43:48.514Z,-2.96
2022-12-12T04:47:08.140Z,-2.93
2022-12-12T04:50:27.953Z,-2.96
2022-12-12T04:53:49.845Z,-2.99
2022-12-12T04:57:10.116Z,-3.03
2022-12-12T05:00:27.513Z,-3.06
2022-12-12T05:03:47.739Z,-2.97
2022-12-12T05:07:10.450Z,-2.88
2022-12-12T05:10:28.226Z,-2.95
2022-12-12T05:13:48.504Z,-2.99
2022-12-12T05:17:09.492Z,-3.01
2022-12-12T05:20:26.324Z,-2.89
2022-12-12T05:23:42.667Z,-2.93
2022-12-12T05:26:59.014Z,-2.90
2022-12-12T05:30:19.009Z,-2.88
2022-12-12T05:33:36.788Z,-2.99
2022-12-12T05:36:54.790Z,-2.96
2022-12-12T05:40:14.133Z,-2.92
2022-12-12T05:43:30.391Z,-2.98
2022-12-12T05:46:46.631Z,-3.03
2022-12-12T05:50:02.711Z,-3.03
2022-12-12T05:53:19.216Z,-3.01
2022-12-12T05:56:35.432Z,-3.03
2022-12-12T05:59:51.705Z,-3.03
2022-12-12T06:03:08.066Z,-3.20
2022-12-12T06:06:24.415Z,-3.19
2022-12-12T06:09:41.210Z,-3.35
2022-12-12T06:12:57.798Z,-3.33
2022-12-12T06:16:20.397Z,-3.37
2022-12-12T06:19:37.027Z,-3.42
2022-12-12T06:22:54.149Z,-3.37
2022-12-12T06:26:11.371Z,-3.33
2022-12-12T06:29:27.848Z,-3.32
2022-12-12T06:32:44.104Z,-3.27
2022-12-12T06:36:12.435Z,-3.26
2022-12-12T06:39:28.768Z,-3.22
2022-12-12T06:42:48.487Z,-3.25
2022-12-12T06:46:10.901Z,-3.32
2022-12-12T06:49:27.114Z,-3.39
2022-12-12T06:52:44.561Z,-3.41
2022-12-12T06:56:01.135Z,-3.24
2022-12-12T06:59:18.735Z,-3.26
2022-12-12T07:02:34.995Z,-3.17
2022-12-12T07:05:53.096Z,-3.21
2022-12-12T07:09:09.752Z,-3.17
2022-12-12T07:12:26.415Z,-3.08
2022-12-12T07:15:44.073Z,-3.17
2022-12-12T07:19:00.844Z,-3.12
2022-12-12T07:22:17.265Z,-2.99
2022-12-12T07:25:34.296Z,-2.97
2022-12-12T07:28:51.214Z,-2.94
2022-12-12T07:32:08.640Z,-2.87
2022-12-12T07:35:25.417Z,-2.96
2022-12-12T07:38:42.503Z,-2.81
2022-12-12T07:41:59.428Z,-2.80
2022-12-12T07:45:22.116Z,-2.73
2022-12-12T07:48:41.925Z,-2.73
2022-12-12T07:52:01.251Z,-2.75
2022-12-12T07:55:23.332Z,-2.65
2022-12-12T07:58:39.854Z,-2.60
2022-12-12T08:01:57.256Z,-2.61
2022-12-12T08:05:16.200Z,-2.69
2022-12-12T08:08:33.017Z,-3.01
2022-12-12T08:11:50.508Z,-2.94
2022-12-12T08:15:24.385Z,-2.90
2022-12-12T08:18:46.117Z,-2.91
2022-12-12T08:22:13.124Z,-2.89
2022-12-12T08:25:47.612Z,-2.95
2022-12-12T08:29:16.415Z,-2.87
2022-12-12T08:32:32.677Z,-2.76
2022-12-12T08:35:49.302Z,-2.61
2022-12-12T08:39:08.009Z,-2.66
2022-12-12T08:42:24.757Z,-2.63
2022-12-12T08:45:42.397Z,-2.65
2022-12-12T08:48:59.332Z,-2.73
2022-12-12T08:52:15.706Z,-2.57
2022-12-12T08:55:31.906Z,-2.58
2022-12-12T08:58:48.302Z,-2.71
2022-12-12T09:02:04.791Z,-2.76
2022-12-12T09:05:21.667Z,-2.64
2022-12-12T09:08:38.045Z,-2.61
2022-12-12T09:11:54.561Z,-2.59
2022-12-12T09:15:16.261Z,-2.73
2022-12-12T09:18:33.457Z,-2.71
2022-12-12T09:21:52.882Z,-2.76
2022-12-12T09:25:09.656Z,-2.73
2022-12-12T09:28:29.456Z,-2.79
2022-12-12T09:31:45.818Z,-2.60
2022-12-12T09:35:02.251Z,-2.67
2022-12-12T09:38:20.043Z,-2.51
2022-12-12T09:41:36.843Z,-2.53
2022-12-12T09:44:53.248Z,-2.43
2022-12-12T09:48:12.998Z,-2.45
2022-12-12T09:51:29.587Z,-2.42
2022-12-12T09:54:46.208Z,-2.31
2022-12-12T09:58:07.611Z,-2.34
2022-12-12T10:01:29.451Z,-2.36
2022-12-12T10:04:52.114Z,-2.27
2022-12-12T10:08:15.745Z,-2.19
2022-12-12T10:11:55.831Z,-2.19
2022-12-12T10:15:18.641Z,-2.12
2022-12-12T10:18:39.533Z,-1.99
2022-12-12T10:21:59.125Z,-2.01
2022-12-12T10:25:27.434Z,-2.05
2022-12-12T10:28:49.763Z,-1.87
2022-12-12T10:32:13.024Z,-2.00
2022-12-12T10:35:34.557Z,-1.98
2022-12-12T10:39:16.670Z,-1.93
2022-12-12T10:42:38.698Z,-2.20
2022-12-12T10:46:10.885Z,-2.05
2022-12-12T10:49:29.126Z,-2.13
2022-12-12T10:52:45.464Z,-1.98
2022-12-12T10:56:05.244Z,-2.02
2022-12-12T10:59:29.061Z,-2.03
2022-12-12T11:02:52.309Z,-1.84
2022-12-12T11:06:11.501Z,-2.02
2022-12-12T11:09:31.850Z,-2.07
2022-12-12T11:12:48.152Z,-2.12
2022-12-12T11:16:13.302Z,-2.23
2022-12-12T11:19:30.527Z,-2.12
2022-12-12T11:22:50.119Z,-2.22
2022-12-12T11:26:14.278Z,-2.16
2022-12-12T11:29:45.941Z,-2.18
2022-12-12T11:33:09.169Z,-2.03
2022-12-12T11:36:36.544Z,-2.01
2022-12-12T11:39:57.123Z,-2.08
2022-12-12T11:43:27.358Z,-2.29
2022-12-12T11:46:43.941Z,-2.20
2022-12-12T11:50:09.303Z,-2.18
2022-12-12T11:53:21.607Z,-2.19
2022-12-12T11:56:59.321Z,-2.16
2022-12-12T12:00:23.133Z,-2.20
2022-12-12T12:04:11.316Z,-2.38
2022-12-12T12:07:42.487Z,-2.25
2022-12-12T12:11:10.916Z,-2.29
2022-12-12T12:15:18.250Z,-2.19
2022-12-12T12:18:55.054Z,-2.20
2022-12-12T12:22:19.961Z,-2.31
2022-12-12T12:25:50.056Z,-2.21
2022-12-12T12:29:26.797Z,-2.26
2022-12-12T12:32:52.602Z,-2.26
2022-12-12T12:36:21.271Z,-2.16
2022-12-12T12:39:49.520Z,-2.32
2022-12-12T12:43:19.557Z,-2.24
2022-12-12T12:46:42.879Z,-2.34
2022-12-12T12:50:04.306Z,-2.36
2022-12-12T12:53:36.894Z,-2.42
2022-12-12T12:56:57.236Z,-2.32
2022-12-12T13:00:23.798Z,-2.17
2022-12-12T13:03:48.303Z,-2.16
2022-12-12T13:07:08.956Z,-2.27
2022-12-12T13:10:30.530Z,-2.14
2022-12-12T13:13:50.733Z,-2.06
2022-12-12T13:17:10.236Z,-2.03
2022-12-12T13:20:27.273Z,-1.96
2022-12-12T13:23:57.398Z,-1.86
2022-12-12T13:27:24.890Z,-2.04
2022-12-12T13:30:53.730Z,-1.95
2022-12-12T13:34:22.725Z,-1.93
2022-12-12T13:37:49.906Z,-2.00
2022-12-12T13:41:13.662Z,-1.87
2022-12-12T13:44:48.893Z,-1.97
2022-12-12T13:48:15.698Z,-1.96
2022-12-12T13:51:51.570Z,-1.89
2022-12-12T13:55:32.985Z,-1.82
2022-12-12T13:58:49.242Z,-1.79
2022-12-12T14:02:07.834Z,-1.83
2022-12-12T14:05:28.752Z,-1.82
2022-12-12T14:08:54.527Z,-1.79
2022-12-12T14:12:27.510Z,-1.76
2022-12-12T14:15:43.933Z,-1.76
2022-12-12T14:19:16.301Z,-1.86
2022-12-12T14:22:54.215Z,-1.87
2022-12-12T14:26:29.585Z,-1.87
2022-12-12T14:29:49.947Z,-1.84
2022-12-12T14:33:10.919Z,-1.82
2022-12-12T14:37:12.659Z,-1.91
2022-12-12T14:40:32.989Z,-1.92
2022-12-12T14:44:36.717Z,-1.92
2022-12-12T14:47:23.251Z,-1.85
2022-12-12T14:50:39.502Z,-2.05
2022-12-12T14:53:58.807Z,-2.01
2022-12-12T14:57:19.935Z,-2.04
2022-12-12T15:00:36.525Z,-2.02
2022-12-12T15:03:57.130Z,-1.96
2022-12-12T15:07:27.657Z,-2.00
2022-12-12T15:10:43.823Z,-1.97
2022-12-12T15:14:09.475Z,-2.09
2022-12-12T15:17:31.675Z,-2.08
2022-12-12T15:20:48.431Z,-2.00
2022-12-12T15:24:05.008Z,-2.01
2022-12-12T15:27:29.973Z,-2.01
2022-12-12T15:30:51.139Z,-2.00
2022-12-12T15:34:07.556Z,-2.07
2022-12-12T15:37:41.208Z,-2.01
2022-12-12T15:41:03.867Z,-2.04
2022-12-12T15:44:28.119Z,-1.99
2022-12-12T15:47:44.518Z,-1.95
2022-12-12T15:51:05.103Z,-2.06
2022-12-12T15:54:22.210Z,-2.01
2022-12-12T15:57:43.117Z,-2.04
2022-12-12T16:01:00.927Z,-2.06
2022-12-12T16:04:32.391Z,-2.01
2022-12-12T16:07:50.973Z,-2.06
2022-12-12T16:11:10.476Z,-1.99
2022-12-12T16:14:41.692Z,-2.01
2022-12-12T16:18:20.911Z,-1.94
2022-12-12T16:21:38.924Z,-1.88
2022-12-12T16:25:02.001Z,-1.88
2022-12-12T16:28:29.551Z,-1.90
2022-12-12T16:31:45.977Z,-1.88
2022-12-12T16:35:02.442Z,-1.98
2022-12-12T16:38:24.269Z,-2.04
2022-12-12T16:41:41.422Z,-1.92
2022-12-12T16:44:57.836Z,-1.84
2022-12-12T16:48:23.884Z,-1.82
2022-12-12T16:51:42.533Z,-1.88
2022-12-12T16:54:59.276Z,-1.81
2022-12-12T16:58:15.820Z,-1.85
2022-12-12T17:01:37.201Z,-1.86
2022-12-12T17:04:50.368Z,-1.85
2022-12-12T17:08:07.168Z,-1.79
2022-12-12T17:11:23.638Z,-1.80
2022-12-12T17:14:40.255Z,-1.77
2022-12-12T17:17:56.558Z,-1.88
2022-12-12T17:21:13.991Z,-1.80
2022-12-12T17:24:31.686Z,-1.76
2022-12-12T17:27:50.564Z,-1.74
2022-12-12T17:31:07.414Z,-1.78
2022-12-12T17:34:23.824Z,-1.84
2022-12-12T17:37:40.495Z,-1.95
2022-12-12T17:40:57.489Z,-1.86
2022-12-12T17:44:14.074Z,-1.80
2022-12-12T17:47:30.188Z,-1.80
2022-12-12T17:50:46.474Z,-1.75
2022-12-12T17:54:03.236Z,-1.74
2022-12-12T17:57:22.956Z,-1.86
2022-12-12T18:00:44.885Z,-1.87
2022-12-12T18:04:02.137Z,-1.86
2022-12-12T18:07:18.582Z,-1.93
2022-12-12T18:10:34.766Z,-1.91
2022-12-12T18:13:53.867Z,-1.89
2022-12-12T18:17:13.143Z,-1.86
2022-12-12T18:20:33.921Z,-1.85
2022-12-12T18:23:50.609Z,-1.87
2022-12-12T18:27:09.259Z,-1.82
2022-12-12T18:30:26.428Z,-1.81
2022-12-12T18:33:43.723Z,-1.71
2022-12-12T18:37:00.472Z,-1.68
2022-12-12T18:40:21.718Z,-1.70
2022-12-12T18:43:41.040Z,-1.67
2022-12-12T18:47:00.068Z,-1.73
2022-12-12T18:50:18.806Z,-1.80
2022-12-12T18:53:36.469Z,-1.71
2022-12-12T18:56:56.345Z,-1.68
2022-12-12T19:00:17.407Z,-1.68
2022-12-12T19:03:34.831Z,-1.61
2022-12-12T19:06:52.311Z,-1.54
2022-12-12T19:10:10.021Z,-1.64
2022-12-12T19:13:27.615Z,-1.56
2022-12-12T19:16:45.211Z,-1.65
2022-12-12T19:20:01.587Z,-1.56
2022-12-12T19:23:19.770Z,-1.56
2022-12-12T19:26:39.355Z,-1.67
2022-12-12T19:29:56.701Z,-1.64
2022-12-12T19:33:13.994Z,-1.57
2022-12-12T19:36:34.412Z,-1.56
2022-12-12T19:39:55.054Z,-1.55
2022-12-12T19:43:14.337Z,-1.54
2022-12-12T19:46:34.545Z,-1.53
2022-12-12T19:49:52.590Z,-1.51
2022-12-12T19:53:10.702Z,-1.45
2022-12-12T19:56:31.199Z,-1.38
2022-12-12T19:59:52.420Z,-1.40
2022-12-12T20:03:11.614Z,-1.41
2022-12-12T20:06:29.858Z,-1.40
2022-12-12T20:09:48.222Z,-1.43
2022-12-12T20:13:06.311Z,-1.40
2022-12-12T20:16:26.856Z,-1.38
2022-12-12T20:19:48.004Z,-1.33
2022-12-12T20:23:05.766Z,-1.33
2022-12-12T20:26:27.036Z,-1.27
2022-12-12T20:29:56.511Z,-1.23
2022-12-12T20:33:15.211Z,-1.24
2022-12-12T20:36:52.112Z,-1.20
2022-12-12T20:40:10.647Z,-1.18
2022-12-12T20:43:29.663Z,-1.20
2022-12-12T20:46:50.565Z,-1.13
2022-12-12T20:50:09.406Z,-1.10
2022-12-12T20:53:26.662Z,-1.10
2022-12-12T20:56:46.737Z,-1.14
2022-12-12T21:00:05.052Z,-1.06
2022-12-12T21:03:23.222Z,-1.04
2022-12-12T21:06:48.522Z,-1.04
2022-12-12T21:10:07.635Z,-1.04
2022-12-12T21:13:28.440Z,-1.06
2022-12-12T21:16:47.768Z,-1.16
2022-12-12T21:20:06.769Z,-1.15
2022-12-12T21:23:25.154Z,-1.11
2022-12-12T21:26:43.395Z,-1.09
2022-12-12T21:30:02.590Z,-1.14
2022-12-12T21:33:20.449Z,-1.06
2022-12-12T21:36:38.001Z,-1.04
2022-12-12T21:39:56.929Z,-1.11
2022-12-12T21:43:14.318Z,-1.08
2022-12-12T21:46:34.664Z,-1.07
2022-12-12T21:49:52.295Z,-1.08
2022-12-12T21:53:22.671Z,-1.12
2022-12-12T21:56:40.272Z,-1.09
2022-12-12T22:00:00.125Z,-1.07
2022-12-12T22:03:14.570Z,-1.09
2022-12-12T22:06:35.377Z,-1.19
2022-12-12T22:09:57.635Z,-1.10
2022-12-12T22:13:10.988Z,-1.05
2022-12-12T22:16:28.269Z,-1.12
2022-12-12T22:19:44.947Z,-1.15
2022-12-12T22:23:01.311Z,-1.18
2022-12-12T22:26:26.522Z,-1.31
2022-12-12T22:29:43.679Z,-1.38
2022-12-12T22:33:00.021Z,-1.37
2022-12-12T22:36:19.113Z,-1.36
2022-12-12T22:39:36.609Z,-1.43
2022-12-12T22:42:52.533Z,-1.41
2022-12-12T22:46:12.427Z,-1.36
2022-12-12T22:49:31.599Z,-1.48
2022-12-12T22:52:47.718Z,-1.43
2022-12-12T22:56:08.133Z,-1.48
2022-12-12T22:59:25.145Z,-1.49
2022-12-12T23:02:41.705Z,-1.67
2022-12-12T23:05:58.956Z,-1.52
2022-12-12T23:09:19.494Z,-1.44
2022-12-12T23:12:36.130Z,-1.61
2022-12-12T23:15:52.393Z,-1.54
2022-12-12T23:19:10.346Z,-1.58
2022-12-12T23:22:26.571Z,-1.50
2022-12-12T23:25:44.399Z,-1.51
2022-12-12T23:29:01.088Z,-1.48
2022-12-12T23:32:17.422Z,-1.45
2022-12-12T23:35:34.000Z,-1.53
2022-12-12T23:38:51.520Z,-1.54
2022-12-12T23:42:08.069Z,-1.63
2022-12-12T23:45:24.717Z,-1.68
2022-12-12T23:48:41.780Z,-1.67
2022-12-12T23:52:01.043Z,-1.61
2022-12-12T23:55:18.756Z,-1.75
2022-12-12T23:58:35.063Z,-1.62
